createdAt,value
2022-12-04T10:13:47.919Z,816.00
2022-12-04T10:14:47.855Z,856.00
2022-12-04T10:15:47.878Z,864.00
2022-12-04T10:16:47.845Z,876.00
2022-12-04T10:17:47.825Z,896.00
2022-12-04T10:18:47.861Z,908.00
2022-12-04T10:19:47.819Z,920.00
2022-12-04T10:20:47.797Z,932.00
2022-12-04T10:21:47.790Z,968.00
2022-12-04T10:22:47.781Z,984.00
2022-12-04T10:23:47.782Z,952.00
2022-12-04T10:24:47.742Z,872.00
2022-12-04T10:25:47.738Z,792.00
2022-12-04T10:26:47.722Z,884.00
2022-12-04T10:27:47.712Z,920.00
2022-12-04T10:28:53.504Z,904.00
2022-12-04T10:29:48.714Z,872.00
2022-12-04T10:30:47.747Z,836.00
2022-12-04T10:31:47.780Z,796.00
2022-12-04T10:32:47.669Z,808.00
2022-12-04T10:33:47.678Z,800.00
2022-12-04T10:34:47.648Z,760.00
2022-12-04T10:35:47.639Z,752.00
2022-12-04T10:36:47.622Z,756.00
2022-12-04T10:37:47.614Z,764.00
2022-12-04T10:38:47.599Z,756.00
2022-12-04T10:39:47.590Z,760.00
2022-12-04T10:40:47.564Z,756.00
2022-12-04T10:41:47.572Z,724.00
2022-12-04T10:42:47.557Z,724.00
2022-12-04T10:43:47.558Z,732.00
2022-12-04T10:44:47.532Z,752.00
2022-12-04T10:45:47.554Z,728.00
2022-12-04T10:46:47.627Z,740.00
2022-12-04T10:47:47.510Z,764.00
2022-12-04T10:48:47.502Z,788.00
2022-12-04T10:49:47.484Z,780.00
2022-12-04T10:50:47.450Z,808.00
2022-12-04T10:51:47.456Z,836.00
2022-12-04T10:52:47.447Z,776.00
2022-12-04T10:53:47.455Z,748.00
2022-12-04T10:54:47.407Z,748.00
2022-12-04T10:55:47.414Z,716.00
2022-12-04T10:56:47.412Z,712.00
2022-12-04T10:57:47.379Z,712.00
2022-12-04T10:58:47.375Z,632.00
2022-12-04T10:59:47.367Z,688.00
2022-12-04T11:00:47.354Z,728.00
2022-12-04T11:01:47.466Z,772.00
2022-12-04T11:02:47.462Z,764.00
2022-12-04T11:03:47.335Z,752.00
2022-12-04T11:04:47.308Z,752.00
2022-12-04T11:05:47.291Z,712.00
2022-12-04T11:06:47.268Z,568.00
2022-12-04T11:07:47.327Z,592.00
2022-12-04T11:08:47.274Z,640.00
2022-12-04T11:09:47.252Z,716.00
2022-12-04T11:10:47.238Z,716.00
2022-12-04T11:11:47.220Z,708.00
2022-12-04T11:12:47.202Z,696.00
2022-12-04T11:13:47.208Z,684.00
2022-12-04T11:14:47.570Z,728.00
2022-12-04T11:15:47.231Z,708.00
2022-12-04T11:16:47.171Z,740.00
2022-12-04T11:17:47.181Z,748.00
2022-12-04T11:18:47.159Z,752.00
2022-12-04T11:19:47.133Z,752.00
2022-12-04T11:20:47.179Z,772.00
2022-12-04T11:21:47.120Z,800.00
2022-12-04T11:22:47.090Z,808.00
2022-12-04T11:23:47.104Z,800.00
2022-12-04T11:24:47.081Z,788.00
2022-12-04T11:25:47.072Z,780.00
2022-12-04T11:26:47.047Z,764.00
2022-12-04T11:27:47.052Z,760.00
2022-12-04T11:28:47.058Z,744.00
2022-12-04T11:29:47.024Z,724.00
2022-12-04T11:30:47.011Z,736.00
2022-12-04T11:31:47.062Z,744.00
2022-12-04T11:32:47.102Z,712.00
2022-12-04T11:33:47.010Z,668.00
2022-12-04T11:34:46.968Z,640.00
2022-12-04T11:35:46.952Z,628.00
2022-12-04T11:36:46.945Z,616.00
2022-12-04T11:37:46.941Z,600.00
2022-12-04T11:38:46.920Z,608.00
2022-12-04T11:39:46.920Z,588.00
2022-12-04T11:40:46.886Z,580.00
2022-12-04T11:41:46.882Z,604.00
2022-12-04T11:42:46.891Z,600.00
2022-12-04T11:43:46.907Z,588.00
2022-12-04T11:44:46.846Z,584.00
2022-12-04T11:45:46.834Z,588.00
2022-12-04T11:46:46.885Z,620.00
2022-12-04T11:47:46.814Z,652.00
2022-12-04T11:48:46.798Z,596.00
2022-12-04T11:49:46.838Z,572.00
2022-12-04T11:50:46.789Z,620.00
2022-12-04T11:51:46.769Z,640.00
2022-12-04T11:52:46.765Z,640.00
2022-12-04T11:53:46.752Z,648.00
2022-12-04T11:54:46.758Z,652.00
2022-12-04T11:55:46.731Z,648.00
2022-12-04T11:56:46.722Z,664.00
2022-12-04T11:57:46.716Z,680.00
2022-12-04T11:58:46.698Z,724.00
2022-12-04T11:59:46.689Z,720.00
2022-12-04T12:00:46.662Z,704.00
2022-12-04T12:01:46.701Z,672.00
2022-12-04T12:02:46.786Z,640.00
2022-12-04T12:03:46.741Z,652.00
2022-12-04T12:04:46.631Z,648.00
2022-12-04T12:05:46.633Z,660.00
2022-12-04T12:06:46.598Z,656.00
2022-12-04T12:07:46.698Z,644.00
2022-12-04T12:08:46.571Z,648.00
2022-12-04T12:09:46.590Z,672.00
2022-12-04T12:10:46.549Z,680.00
2022-12-04T12:11:46.541Z,680.00
2022-12-04T12:12:46.527Z,688.00
2022-12-04T12:13:46.517Z,688.00
2022-12-04T12:14:46.512Z,696.00
2022-12-04T12:15:46.512Z,692.00
2022-12-04T12:16:48.526Z,676.00
2022-12-04T12:17:46.474Z,664.00
2022-12-04T12:18:46.474Z,668.00
2022-12-04T12:19:46.461Z,652.00
2022-12-04T12:20:46.435Z,648.00
2022-12-04T12:21:46.456Z,644.00
2022-12-04T12:22:46.427Z,640.00
2022-12-04T12:23:46.418Z,640.00
2022-12-04T12:24:49.875Z,632.00
2022-12-04T12:25:51.955Z,620.00
2022-12-04T12:26:47.371Z,592.00
2022-12-04T12:27:46.374Z,564.00
2022-12-04T12:28:46.357Z,540.00
2022-12-04T12:29:46.485Z,520.00
2022-12-04T12:30:46.352Z,536.00
2022-12-04T12:31:46.421Z,524.00
2022-12-04T12:32:46.300Z,520.00
2022-12-04T12:33:46.309Z,520.00
2022-12-04T12:34:46.292Z,524.00
2022-12-04T12:35:46.287Z,524.00
2022-12-04T12:36:46.261Z,516.00
2022-12-04T12:37:46.287Z,500.00
2022-12-04T12:38:46.233Z,488.00
2022-12-04T12:39:46.320Z,476.00
2022-12-04T12:40:46.223Z,440.00
2022-12-04T12:41:46.223Z,420.00
2022-12-04T12:42:46.212Z,424.00
2022-12-04T12:43:46.210Z,420.00
2022-12-04T12:44:46.193Z,404.00
2022-12-04T12:45:46.238Z,404.00
2022-12-04T12:46:46.145Z,404.00
2022-12-04T12:47:46.153Z,400.00
2022-12-04T12:48:46.133Z,396.00
2022-12-04T12:49:46.140Z,404.00
2022-12-04T12:50:49.383Z,392.00
2022-12-04T12:51:47.103Z,384.00
2022-12-04T12:52:46.073Z,372.00
2022-12-04T12:53:46.105Z,376.00
2022-12-04T12:54:46.067Z,384.00
2022-12-04T12:55:46.059Z,420.00
2022-12-04T12:56:49.602Z,424.00
2022-12-04T12:57:46.034Z,432.00
2022-12-04T12:58:46.010Z,424.00
2022-12-04T12:59:46.016Z,416.00
2022-12-04T13:00:46.076Z,408.00
2022-12-04T13:01:46.031Z,388.00
2022-12-04T13:02:46.067Z,388.00
2022-12-04T13:03:45.967Z,388.00
2022-12-04T13:04:45.982Z,392.00
2022-12-04T13:05:45.951Z,392.00
2022-12-04T13:06:45.934Z,400.00
2022-12-04T13:07:45.995Z,404.00
2022-12-04T13:08:49.336Z,396.00
2022-12-04T13:09:45.947Z,396.00
2022-12-04T13:10:45.879Z,388.00
2022-12-04T13:11:45.864Z,372.00
2022-12-04T13:12:45.865Z,368.00
2022-12-04T13:13:45.861Z,360.00
2022-12-04T13:14:48.991Z,348.00
2022-12-04T13:15:45.832Z,336.00
2022-12-04T13:16:46.023Z,328.00
2022-12-04T13:17:45.796Z,328.00
2022-12-04T13:18:45.779Z,332.00
2022-12-04T13:19:45.802Z,344.00
2022-12-04T13:20:45.764Z,352.00
2022-12-04T13:21:45.764Z,352.00
2022-12-04T13:22:45.747Z,348.00
2022-12-04T13:23:45.741Z,352.00
2022-12-04T13:24:45.726Z,348.00
2022-12-04T13:25:45.744Z,344.00
2022-12-04T13:26:49.534Z,340.00
2022-12-04T13:27:45.681Z,332.00
2022-12-04T13:28:45.671Z,324.00
2022-12-04T13:29:45.689Z,324.00
2022-12-04T13:30:45.650Z,328.00
2022-12-04T13:31:45.744Z,332.00
2022-12-04T13:32:45.622Z,336.00
2022-12-04T13:33:45.626Z,336.00
2022-12-04T13:34:45.648Z,340.00
2022-12-04T13:35:45.597Z,336.00
2022-12-04T13:36:45.578Z,332.00
2022-12-04T13:37:45.584Z,332.00
2022-12-04T13:38:45.568Z,332.00
2022-12-04T13:39:45.563Z,348.00
2022-12-04T13:40:45.534Z,352.00
2022-12-04T13:41:45.553Z,348.00
2022-12-04T13:42:45.518Z,344.00
2022-12-04T13:43:45.504Z,340.00
2022-12-04T13:44:45.517Z,332.00
2022-12-04T13:45:45.532Z,320.00
2022-12-04T13:46:45.481Z,300.00
2022-12-04T13:47:45.470Z,292.00
2022-12-04T13:48:45.444Z,288.00
2022-12-04T13:49:45.450Z,280.00
2022-12-04T13:50:45.435Z,272.00
2022-12-04T13:51:45.425Z,276.00
2022-12-04T13:52:45.413Z,280.00
2022-12-04T13:53:45.389Z,288.00
2022-12-04T13:54:45.388Z,288.00
2022-12-04T13:55:45.380Z,280.00
2022-12-04T13:56:45.352Z,272.00
2022-12-04T13:57:45.386Z,280.00
2022-12-04T13:58:45.345Z,272.00
2022-12-04T13:59:45.330Z,264.00
2022-12-04T14:00:45.381Z,260.00
2022-12-04T14:01:45.423Z,244.00
2022-12-04T14:02:45.375Z,236.00
2022-12-04T14:03:45.288Z,228.00
2022-12-04T14:04:45.265Z,220.00
2022-12-04T14:05:45.266Z,212.00
2022-12-04T14:06:45.246Z,212.00
2022-12-04T14:07:45.317Z,200.00
2022-12-04T14:08:45.223Z,200.00
2022-12-04T14:09:45.212Z,196.00
2022-12-04T14:10:45.212Z,196.00
2022-12-04T14:11:45.182Z,200.00
2022-12-04T14:12:45.190Z,200.00
2022-12-04T14:13:45.272Z,204.00
2022-12-04T14:14:45.166Z,212.00
2022-12-04T14:15:45.150Z,220.00
2022-12-04T14:16:45.227Z,228.00
2022-12-04T14:17:45.170Z,240.00
2022-12-04T14:18:45.121Z,244.00
2022-12-04T14:19:45.116Z,244.00
2022-12-04T14:20:45.084Z,244.00
2022-12-04T14:21:45.086Z,236.00
2022-12-04T14:22:45.080Z,240.00
2022-12-04T14:23:45.066Z,248.00
2022-12-04T14:24:45.053Z,240.00
2022-12-04T14:25:45.031Z,232.00
2022-12-04T14:27:12.210Z,220.00
2022-12-04T14:27:46.014Z,208.00
2022-12-04T14:28:45.013Z,204.00
2022-12-04T14:29:45.038Z,200.00
2022-12-04T14:30:45.049Z,200.00
2022-12-04T14:31:44.975Z,196.00
2022-12-04T14:32:44.967Z,192.00
2022-12-04T14:33:44.966Z,188.00
2022-12-04T14:34:44.941Z,180.00
2022-12-04T14:35:44.922Z,176.00
2022-12-04T14:36:44.908Z,172.00
2022-12-04T14:37:44.901Z,160.00
2022-12-04T14:38:44.946Z,148.00
2022-12-04T14:39:44.883Z,140.00
2022-12-04T14:40:44.857Z,132.00
2022-12-04T14:41:44.854Z,132.00
2022-12-04T14:42:44.849Z,132.00
2022-12-04T14:43:44.825Z,124.00
2022-12-04T14:44:44.833Z,116.00
2022-12-04T14:45:44.893Z,112.00
2022-12-04T14:46:44.895Z,112.00
2022-12-04T14:47:44.857Z,104.00
2022-12-04T14:48:44.771Z,104.00
2022-12-04T14:49:44.781Z,104.00
2022-12-04T14:50:44.761Z,100.00
2022-12-04T14:51:44.742Z,96.00
2022-12-04T14:52:44.735Z,92.00
2022-12-04T14:53:44.709Z,88.00
2022-12-04T14:54:44.714Z,84.00
2022-12-04T14:55:44.714Z,80.00
2022-12-04T14:56:44.750Z,80.00
2022-12-04T14:57:44.676Z,76.00
2022-12-04T14:58:44.667Z,76.00
2022-12-04T14:59:44.643Z,72.00
2022-12-04T15:00:44.662Z,72.00
2022-12-04T15:01:44.655Z,68.00
